createdAt,value
2018-01-26T00:01:33.235Z,99.90
2018-01-26T00:04:01.567Z,99.90
2018-01-26T00:06:29.076Z,99.90
2018-01-26T00:08:57.402Z,99.90
2018-01-26T00:11:24.921Z,99.90
2018-01-26T00:13:52.476Z,99.90
2018-01-26T00:16:19.996Z,99.90
2018-01-26T00:18:47.831Z,99.90
2018-01-26T00:21:15.361Z,99.90
2018-01-26T00:23:42.888Z,99.90
2018-01-26T00:26:10.446Z,99.90
2018-01-26T00:28:37.971Z,99.90
2018-01-26T00:31:06.299Z,99.90
2018-01-26T00:33:33.831Z,99.90
2018-01-26T00:36:01.383Z,99.90
2018-01-26T00:38:28.899Z,99.90
2018-01-26T00:40:56.457Z,99.90
2018-01-26T00:43:23.982Z,99.90
2018-01-26T00:45:51.540Z,99.90
2018-01-26T00:48:19.085Z,99.90
2018-01-26T00:50:46.662Z,99.90
2018-01-26T00:53:14.183Z,99.90
2018-01-26T00:55:41.707Z,99.90
2018-01-26T00:58:09.322Z,99.90
2018-01-26T01:00:36.838Z,99.90
2018-01-26T01:03:04.389Z,99.90
2018-01-26T01:05:31.921Z,99.90
2018-01-26T01:07:59.496Z,99.90
2018-01-26T01:10:27.004Z,99.90
2018-01-26T01:12:55.326Z,99.90
2018-01-26T01:15:22.851Z,99.90
2018-01-26T01:17:50.672Z,99.90
2018-01-26T01:20:18.185Z,99.90
2018-01-26T01:22:45.700Z,99.90
2018-01-26T01:25:13.264Z,99.90
2018-01-26T01:27:41.548Z,99.90
2018-01-26T01:30:09.880Z,99.90
2018-01-26T01:32:37.395Z,99.90
2018-01-26T01:35:04.959Z,99.90
2018-01-26T01:37:32.492Z,99.90
2018-01-26T01:40:00.091Z,99.90
2018-01-26T01:42:27.612Z,99.90
2018-01-26T01:44:55.949Z,99.90
2018-01-26T01:47:23.469Z,99.90
2018-01-26T01:49:51.749Z,99.90
2018-01-26T01:52:20.089Z,99.90
2018-01-26T01:54:47.628Z,99.90
2018-01-26T01:57:15.187Z,99.90
2018-01-26T01:59:42.700Z,99.90
2018-01-26T02:02:10.254Z,99.90
2018-01-26T02:04:37.772Z,99.90
2018-01-26T02:07:05.356Z,99.90
2018-01-26T02:09:32.880Z,99.90
2018-01-26T02:12:00.406Z,99.90
2018-01-26T02:14:27.963Z,99.90
2018-01-26T02:16:55.524Z,99.90
2018-01-26T02:19:23.084Z,99.90
2018-01-26T02:21:50.613Z,99.90
2018-01-26T02:24:18.935Z,99.90
2018-01-26T02:26:46.451Z,99.90
2018-01-26T02:29:14.016Z,99.90
2018-01-26T02:31:41.540Z,99.90
2018-01-26T02:34:09.109Z,99.90
2018-01-26T02:36:36.629Z,99.90
2018-01-26T02:39:04.149Z,99.90
2018-01-26T02:41:31.707Z,99.90
2018-01-26T02:44:00.005Z,99.90
2018-01-26T02:46:27.609Z,99.90
2018-01-26T02:48:55.124Z,99.90
2018-01-26T02:51:22.683Z,99.90
2018-01-26T02:53:50.205Z,99.90
2018-01-26T02:56:17.758Z,99.90
2018-01-26T02:58:46.095Z,99.90
2018-01-26T03:01:13.636Z,99.90
2018-01-26T03:03:41.197Z,99.90
2018-01-26T03:06:09.480Z,99.90
2018-01-26T03:08:37.804Z,99.90
2018-01-26T03:11:05.315Z,99.90
2018-01-26T03:13:32.872Z,99.90
2018-01-26T03:16:00.392Z,99.90
2018-01-26T03:18:28.719Z,99.90
2018-01-26T03:20:56.232Z,99.90
2018-01-26T03:23:23.800Z,99.90
2018-01-26T03:25:51.316Z,99.90
2018-01-26T03:28:18.843Z,99.90
2018-01-26T03:30:46.399Z,99.90
2018-01-26T03:33:13.917Z,99.90
2018-01-26T03:35:42.235Z,99.90
2018-01-26T03:38:09.751Z,99.90
2018-01-26T03:40:37.306Z,99.90
2018-01-26T03:43:04.824Z,99.90
2018-01-26T03:45:33.148Z,99.90
2018-01-26T03:48:00.671Z,99.90
2018-01-26T03:50:29.060Z,99.90
2018-01-26T03:52:56.539Z,99.90
2018-01-26T03:55:24.060Z,99.90
2018-01-26T03:57:51.615Z,99.90
2018-01-26T04:00:19.128Z,99.90
2018-01-26T04:02:46.697Z,99.90
2018-01-26T04:05:14.212Z,99.90
2018-01-26T04:07:41.758Z,99.90
2018-01-26T04:10:09.279Z,99.90
2018-01-26T04:12:36.836Z,99.90
2018-01-26T04:15:04.347Z,99.90
2018-01-26T04:17:31.904Z,99.90
2018-01-26T04:19:59.418Z,99.90
2018-01-26T04:22:26.968Z,99.90
2018-01-26T04:24:54.482Z,99.90
2018-01-26T04:27:22.853Z,99.90
2018-01-26T04:29:50.356Z,99.90
2018-01-26T04:32:17.911Z,99.90
2018-01-26T04:34:46.193Z,99.90
2018-01-26T04:37:14.472Z,99.90
2018-01-26T04:39:42.032Z,99.90
2018-01-26T04:42:09.555Z,99.90
2018-01-26T04:44:37.107Z,99.90
2018-01-26T04:47:05.383Z,99.90
2018-01-26T04:49:32.938Z,99.90
2018-01-26T04:52:00.463Z,99.90
2018-01-26T04:54:28.037Z,99.90
2018-01-26T04:56:55.563Z,99.90
2018-01-26T04:59:23.118Z,99.90
2018-01-26T05:01:50.645Z,99.90
2018-01-26T05:04:18.224Z,99.90
2018-01-26T05:06:46.519Z,99.90
2018-01-26T05:09:14.094Z,99.90
2018-01-26T05:11:41.617Z,99.90
2018-01-26T05:14:09.935Z,99.90
2018-01-26T05:16:37.483Z,99.90
2018-01-26T05:19:05.004Z,99.90
2018-01-26T05:21:32.555Z,99.90
2018-01-26T05:24:00.187Z,99.90
2018-01-26T05:26:27.753Z,99.90
2018-01-26T05:28:55.267Z,99.90
2018-01-26T05:31:22.828Z,99.90
2018-01-26T05:33:51.111Z,99.90
2018-01-26T05:36:18.668Z,99.90
2018-01-26T05:38:46.190Z,99.90
2018-01-26T05:41:13.767Z,99.90
2018-01-26T05:43:41.293Z,99.90
2018-01-26T05:46:08.862Z,99.90
2018-01-26T05:48:36.376Z,99.90
2018-01-26T05:51:03.916Z,99.90
2018-01-26T05:53:31.462Z,99.90
2018-01-26T05:55:58.993Z,99.90
2018-01-26T05:58:26.596Z,99.90
2018-01-26T06:00:54.113Z,99.90
2018-01-26T06:03:22.451Z,99.90
2018-01-26T06:05:49.974Z,99.90
2018-01-26T06:08:18.264Z,99.90
2018-01-26T06:10:46.584Z,99.90
2018-01-26T06:13:14.117Z,99.90
2018-01-26T06:15:41.680Z,99.90
2018-01-26T06:18:09.202Z,99.90
2018-01-26T06:20:36.756Z,99.90
2018-01-26T06:23:04.300Z,99.90
2018-01-26T06:25:31.859Z,99.90
2018-01-26T06:27:59.375Z,99.90
2018-01-26T06:30:26.947Z,99.90
2018-01-26T06:32:54.471Z,99.90
2018-01-26T06:35:22.099Z,99.90
2018-01-26T06:37:49.629Z,99.90
2018-01-26T06:40:17.220Z,99.90
2018-01-26T06:42:45.507Z,99.90
2018-01-26T06:45:13.807Z,99.90
2018-01-26T06:47:42.141Z,99.90
2018-01-26T06:50:09.665Z,99.90
2018-01-26T06:52:37.979Z,99.90
2018-01-26T06:55:05.499Z,99.90
2018-01-26T06:57:33.060Z,99.90
2018-01-26T07:00:00.588Z,99.90
2018-01-26T07:02:28.149Z,99.90
2018-01-26T07:04:55.660Z,99.90
2018-01-26T07:07:23.231Z,99.90
2018-01-26T07:09:50.755Z,99.90
2018-01-26T07:12:19.032Z,99.90
2018-01-26T07:14:46.590Z,99.90
2018-01-26T07:17:14.105Z,99.90
2018-01-26T07:19:41.657Z,99.90
2018-01-26T07:22:09.938Z,99.90
2018-01-26T07:24:37.492Z,99.90
2018-01-26T07:27:05.003Z,99.90
2018-01-26T07:29:33.345Z,99.90
2018-01-26T07:32:00.852Z,99.90
2018-01-26T07:34:28.376Z,99.90
2018-01-26T07:36:55.928Z,99.90
2018-01-26T07:39:23.482Z,99.90
2018-01-26T07:41:51.800Z,99.90
2018-01-26T07:44:19.315Z,99.90
2018-01-26T07:46:46.918Z,99.90
2018-01-26T07:49:14.426Z,99.90
2018-01-26T07:51:41.933Z,99.90
2018-01-26T07:54:09.491Z,99.90
2018-01-26T07:56:36.994Z,99.90
2018-01-26T07:59:05.304Z,99.90
2018-01-26T08:01:32.812Z,99.90
2018-01-26T08:04:00.359Z,99.90
2018-01-26T08:06:27.871Z,99.90
2018-01-26T08:08:55.423Z,99.90
2018-01-26T08:11:22.936Z,99.90
2018-01-26T08:13:50.499Z,99.90
2018-01-26T08:16:18.019Z,99.90
2018-01-26T08:18:45.581Z,99.90
2018-01-26T08:21:13.881Z,99.90
2018-01-26T08:23:41.400Z,99.90
2018-01-26T08:26:08.960Z,99.90
2018-01-26T08:28:36.471Z,99.90
2018-01-26T08:31:04.791Z,99.90
2018-01-26T08:33:32.331Z,99.90
2018-01-26T08:36:00.643Z,99.90
2018-01-26T08:38:28.159Z,99.90
2018-01-26T08:40:55.720Z,99.90
2018-01-26T08:43:23.239Z,99.90
2018-01-26T08:45:50.798Z,99.90
2018-01-26T08:48:18.311Z,99.90
2018-01-26T08:50:45.893Z,99.90
2018-01-26T08:53:13.413Z,99.90
2018-01-26T08:55:40.927Z,99.90
2018-01-26T08:58:08.477Z,99.90
2018-01-26T09:00:36.006Z,99.90
2018-01-26T09:03:03.579Z,99.90
2018-01-26T09:05:31.101Z,99.90
2018-01-26T09:07:58.662Z,99.90
2018-01-26T09:10:26.947Z,99.90
2018-01-26T09:12:54.506Z,99.90
2018-01-26T09:15:22.811Z,97.70
2018-01-26T09:17:51.099Z,95.10
2018-01-26T09:20:19.422Z,93.40
2018-01-26T09:22:46.943Z,93.40
2018-01-26T09:25:14.505Z,92.70
2018-01-26T09:27:42.028Z,90.20
2018-01-26T09:30:09.581Z,90.90
2018-01-26T09:32:37.895Z,91.00
2018-01-26T09:35:05.451Z,91.00
2018-01-26T09:37:32.979Z,92.50
2018-01-26T09:40:00.551Z,93.30
2018-01-26T09:42:28.079Z,94.00
2018-01-26T09:44:55.670Z,94.20
2018-01-26T09:47:23.183Z,94.30
2018-01-26T09:49:50.714Z,94.60
2018-01-26T09:52:18.263Z,94.60
2018-01-26T09:54:45.777Z,94.50
2018-01-26T09:57:13.326Z,94.70
2018-01-26T09:59:40.842Z,94.50
2018-01-26T10:02:08.413Z,94.20
2018-01-26T10:04:35.935Z,95.20
2018-01-26T10:07:03.495Z,95.60
2018-01-26T10:09:31.027Z,94.50
2018-01-26T10:11:58.584Z,94.50
2018-01-26T10:14:26.108Z,94.70
2018-01-26T10:16:53.667Z,94.50
2018-01-26T10:19:21.959Z,92.00
2018-01-26T10:21:49.536Z,92.00
2018-01-26T10:24:17.059Z,91.40
2018-01-26T10:26:45.011Z,92.20
2018-01-26T10:29:12.560Z,91.30
2018-01-26T10:31:40.836Z,89.70
2018-01-26T10:34:09.152Z,88.60
2018-01-26T10:36:36.672Z,88.40
2018-01-26T10:39:04.235Z,87.80
2018-01-26T10:41:31.761Z,87.00
2018-01-26T10:43:59.317Z,86.00
2018-01-26T10:46:26.832Z,83.60
2018-01-26T10:48:54.391Z,79.10
2018-01-26T10:51:21.907Z,80.50
2018-01-26T10:53:49.447Z,81.00
2018-01-26T10:56:17.006Z,77.90
2018-01-26T10:58:44.525Z,75.60
2018-01-26T11:01:12.087Z,75.60
2018-01-26T11:03:39.603Z,75.50
2018-01-26T11:06:07.163Z,75.90
2018-01-26T11:08:34.677Z,74.70
2018-01-26T11:11:02.232Z,75.60
2018-01-26T11:13:29.756Z,75.20
2018-01-26T11:15:57.340Z,75.70
2018-01-26T11:18:24.871Z,77.10
2018-01-26T11:20:52.386Z,79.70
2018-01-26T11:23:19.950Z,80.50
2018-01-26T11:25:47.463Z,81.40
2018-01-26T11:28:15.016Z,83.60
2018-01-26T11:30:43.296Z,82.90
2018-01-26T11:33:10.849Z,82.80
2018-01-26T11:35:38.368Z,83.30
2018-01-26T11:38:05.943Z,84.90
2018-01-26T11:40:33.462Z,85.00
2018-01-26T11:43:01.029Z,85.60
2018-01-26T11:45:28.543Z,84.50
2018-01-26T11:47:56.119Z,84.10
2018-01-26T11:50:23.636Z,84.20
2018-01-26T11:52:51.157Z,84.50
2018-01-26T11:55:19.478Z,84.00
2018-01-26T11:57:46.989Z,84.00
2018-01-26T12:00:14.547Z,82.40
2018-01-26T12:02:42.068Z,83.20
2018-01-26T12:05:10.395Z,84.40
2018-01-26T12:07:37.912Z,84.40
2018-01-26T12:10:05.471Z,83.40
2018-01-26T12:12:32.977Z,83.10
2018-01-26T12:15:01.263Z,83.60
2018-01-26T12:17:28.823Z,83.60
2018-01-26T12:19:57.107Z,80.10
2018-01-26T12:22:24.906Z,80.10
2018-01-26T12:24:52.420Z,81.70
2018-01-26T12:27:19.976Z,81.80
2018-01-26T12:29:47.513Z,82.90
2018-01-26T12:32:15.068Z,83.80
2018-01-26T12:34:42.588Z,82.70
2018-01-26T12:37:10.160Z,82.60
2018-01-26T12:39:37.678Z,83.90
2018-01-26T12:42:05.189Z,84.00
2018-01-26T12:44:32.751Z,83.30
2018-01-26T12:47:00.293Z,82.30
2018-01-26T12:49:27.843Z,84.00
2018-01-26T12:51:55.364Z,84.20
2018-01-26T12:54:23.690Z,83.30
2018-01-26T12:56:51.240Z,83.30
2018-01-26T12:59:18.799Z,82.50
2018-01-26T13:01:47.088Z,80.90
2018-01-26T13:04:15.427Z,81.90
2018-01-26T13:06:42.950Z,81.90
2018-01-26T13:09:11.232Z,80.00
2018-01-26T13:11:39.554Z,80.30
2018-01-26T13:14:07.079Z,80.30
2018-01-26T13:16:34.641Z,81.40
2018-01-26T13:19:02.162Z,80.10
2018-01-26T13:21:29.715Z,80.60
2018-01-26T13:23:58.030Z,79.50
2018-01-26T13:26:25.588Z,79.50
2018-01-26T13:28:53.197Z,79.40
2018-01-26T13:31:20.768Z,78.20
2018-01-26T13:33:48.276Z,79.00
2018-01-26T13:36:15.797Z,79.30
2018-01-26T13:38:43.360Z,79.20
2018-01-26T13:41:10.880Z,80.80
2018-01-26T13:43:38.434Z,81.00
2018-01-26T13:46:06.719Z,83.20
2018-01-26T13:48:34.272Z,83.20
2018-01-26T13:51:02.135Z,82.60
2018-01-26T13:53:30.479Z,82.20
2018-01-26T13:55:58.003Z,82.20
2018-01-26T13:58:25.564Z,82.40
2018-01-26T14:00:53.942Z,82.10
2018-01-26T14:03:22.270Z,81.40
2018-01-26T14:05:49.832Z,81.10
2018-01-26T14:08:17.370Z,81.80
2018-01-26T14:10:44.927Z,80.80
2018-01-26T14:13:12.439Z,80.60
2018-01-26T14:15:40.782Z,80.20
2018-01-26T14:18:08.324Z,80.30
2018-01-26T14:20:35.859Z,81.10
2018-01-26T14:23:03.425Z,82.00
2018-01-26T14:25:30.984Z,82.70
2018-01-26T14:27:58.551Z,84.20
2018-01-26T14:30:26.078Z,85.20
2018-01-26T14:32:53.624Z,85.50
2018-01-26T14:35:21.132Z,86.20
2018-01-26T14:37:48.689Z,87.00
2018-01-26T14:40:16.208Z,87.20
2018-01-26T14:42:43.735Z,87.40
2018-01-26T14:45:11.405Z,88.20
2018-01-26T14:47:38.923Z,87.80
2018-01-26T14:50:06.484Z,88.00
2018-01-26T14:52:34.003Z,88.20
2018-01-26T14:55:02.312Z,89.00
2018-01-26T14:57:29.856Z,89.00
2018-01-26T14:59:57.419Z,89.40
2018-01-26T15:02:24.939Z,90.20
2018-01-26T15:04:52.443Z,90.30
2018-01-26T15:07:20.016Z,90.20
2018-01-26T15:09:47.543Z,90.40
2018-01-26T15:12:15.126Z,90.50
2018-01-26T15:14:42.653Z,90.70
2018-01-26T15:17:10.217Z,91.00
2018-01-26T15:19:37.768Z,91.10
2018-01-26T15:22:05.291Z,91.30
2018-01-26T15:24:33.617Z,92.00
2018-01-26T15:27:01.133Z,92.00
2018-01-26T15:29:28.684Z,92.20
2018-01-26T15:31:56.209Z,92.40
2018-01-26T15:34:23.775Z,92.70
2018-01-26T15:36:51.296Z,93.00
2018-01-26T15:39:18.815Z,93.60
2018-01-26T15:41:47.151Z,93.80
2018-01-26T15:44:14.692Z,93.80
2018-01-26T15:46:42.256Z,93.90
2018-01-26T15:49:09.776Z,94.30
2018-01-26T15:51:37.326Z,94.50
2018-01-26T15:54:04.847Z,94.80
2018-01-26T15:56:32.399Z,95.00
2018-01-26T15:58:59.939Z,95.40
2018-01-26T16:01:27.529Z,95.60
2018-01-26T16:03:55.076Z,96.10
2018-01-26T16:06:22.631Z,96.60
2018-01-26T16:08:50.929Z,97.40
2018-01-26T16:11:18.510Z,97.40
2018-01-26T16:13:46.027Z,97.70
2018-01-26T16:16:13.547Z,98.10
2018-01-26T16:18:41.113Z,98.40
2018-01-26T16:21:08.631Z,98.70
2018-01-26T16:23:36.203Z,99.00
2018-01-26T16:26:03.775Z,99.30
2018-01-26T16:28:31.337Z,99.60
2018-01-26T16:30:58.863Z,99.80
2018-01-26T16:33:27.184Z,99.90
2018-01-26T16:35:54.699Z,99.90
2018-01-26T16:38:22.280Z,99.90
2018-01-26T16:40:49.792Z,99.90
2018-01-26T16:43:17.307Z,99.90
2018-01-26T16:45:44.863Z,99.90
2018-01-26T16:48:12.368Z,99.90
2018-01-26T16:50:39.925Z,99.90
2018-01-26T16:53:07.466Z,99.90
2018-01-26T16:55:35.059Z,99.90
2018-01-26T16:58:02.584Z,99.90
2018-01-26T17:00:30.173Z,99.90
2018-01-26T17:02:57.683Z,99.90
2018-01-26T17:05:25.196Z,99.90
2018-01-26T17:07:53.516Z,99.90
2018-01-26T17:10:21.027Z,99.90
2018-01-26T17:12:48.588Z,99.90
2018-01-26T17:15:16.111Z,99.90
2018-01-26T17:17:43.669Z,99.90
2018-01-26T17:20:11.947Z,99.90
2018-01-26T17:22:40.276Z,99.90
2018-01-26T17:25:07.788Z,99.90
2018-01-26T17:27:35.342Z,99.90
2018-01-26T17:30:02.858Z,99.90
2018-01-26T17:32:30.449Z,99.90
2018-01-26T17:34:57.972Z,99.90
2018-01-26T17:37:25.499Z,99.90
2018-01-26T17:39:53.056Z,99.90
2018-01-26T17:42:20.564Z,99.90
2018-01-26T17:44:48.124Z,99.90
2018-01-26T17:47:15.634Z,99.90
2018-01-26T17:49:43.203Z,99.90
2018-01-26T17:52:10.715Z,99.90
2018-01-26T17:54:39.044Z,99.90
2018-01-26T17:57:06.551Z,99.90
2018-01-26T17:59:34.069Z,99.90
2018-01-26T18:02:01.641Z,99.90
2018-01-26T18:04:29.167Z,99.90
2018-01-26T18:06:56.719Z,99.90
2018-01-26T18:09:24.243Z,99.90
2018-01-26T18:11:51.806Z,99.90
2018-01-26T18:14:20.080Z,99.90
2018-01-26T18:16:47.647Z,99.90
2018-01-26T18:19:15.153Z,99.90
2018-01-26T18:21:42.667Z,99.90
2018-01-26T18:24:10.236Z,99.90
2018-01-26T18:26:37.776Z,99.90
2018-01-26T18:29:05.341Z,99.90
2018-01-26T18:31:32.855Z,99.90
2018-01-26T18:34:00.412Z,99.90
2018-01-26T18:36:27.931Z,99.90
2018-01-26T18:38:55.484Z,99.90
2018-01-26T18:41:23.003Z,99.90
2018-01-26T18:43:50.571Z,99.90
2018-01-26T18:46:18.139Z,99.90
2018-01-26T18:48:45.719Z,99.90
2018-01-26T18:51:13.235Z,99.90
2018-01-26T18:53:40.762Z,99.90
2018-01-26T18:56:08.334Z,99.90
2018-01-26T18:58:35.858Z,99.90
2018-01-26T19:01:03.425Z,99.90
2018-01-26T19:03:30.953Z,99.90
2018-01-26T19:05:58.555Z,99.90
2018-01-26T19:08:26.065Z,99.90
2018-01-26T19:10:53.618Z,99.90
2018-01-26T19:13:21.137Z,99.90
2018-01-26T19:15:48.703Z,99.90
2018-01-26T19:18:16.983Z,99.90
2018-01-26T19:20:45.360Z,99.90
2018-01-26T19:23:12.875Z,99.90
2018-01-26T19:25:40.398Z,99.90
2018-01-26T19:28:07.967Z,99.90
2018-01-26T19:30:35.496Z,99.90
2018-01-26T19:33:04.811Z,99.90
2018-01-26T19:35:32.322Z,99.90
2018-01-26T19:37:59.883Z,99.90
2018-01-26T19:40:27.395Z,99.90
2018-01-26T19:42:55.721Z,99.90
2018-01-26T19:45:23.274Z,99.90
2018-01-26T19:47:50.839Z,99.90
2018-01-26T19:50:18.364Z,99.90
2018-01-26T19:52:45.878Z,99.90
2018-01-26T19:55:13.466Z,99.90
2018-01-26T19:57:41.005Z,99.90
2018-01-26T20:00:09.356Z,99.90
2018-01-26T20:02:36.883Z,99.90
2018-01-26T20:05:22.858Z,99.90
2018-01-26T20:08:00.328Z,99.90
2018-01-26T20:10:27.914Z,99.90
2018-01-26T20:13:01.546Z,99.90
2018-01-26T20:15:29.224Z,99.90
2018-01-26T20:17:57.329Z,99.90
2018-01-26T20:20:25.683Z,99.90
2018-01-26T20:22:53.230Z,99.90
2018-01-26T20:25:20.791Z,99.90
2018-01-26T20:27:48.350Z,99.90
2018-01-26T20:30:16.726Z,99.90
2018-01-26T20:32:44.231Z,99.90
2018-01-26T20:35:11.819Z,99.90
2018-01-26T20:37:39.335Z,99.90
2018-01-26T20:40:06.852Z,99.90
2018-01-26T20:42:34.419Z,99.90
2018-01-26T20:45:01.946Z,99.90
2018-01-26T20:47:29.507Z,99.90
2018-01-26T20:49:57.021Z,99.90
2018-01-26T20:52:24.579Z,99.90
2018-01-26T20:54:52.862Z,99.90
2018-01-26T20:57:20.439Z,99.90
2018-01-26T20:59:47.984Z,99.90
2018-01-26T21:02:15.625Z,99.90
2018-01-26T21:04:43.139Z,99.90
2018-01-26T21:07:10.654Z,99.90
2018-01-26T21:09:38.221Z,99.90
2018-01-26T21:12:05.726Z,99.90
2018-01-26T21:14:33.314Z,99.90
2018-01-26T21:17:00.828Z,99.90
2018-01-26T21:19:29.238Z,99.90
2018-01-26T21:21:56.751Z,99.90
2018-01-26T21:24:24.307Z,99.90
2018-01-26T21:26:51.820Z,99.90
2018-01-26T21:29:19.388Z,99.90
2018-01-26T21:31:46.943Z,99.90
2018-01-26T21:34:14.503Z,99.90
2018-01-26T21:36:42.060Z,99.90
2018-01-26T21:39:10.450Z,99.90
2018-01-26T21:41:38.011Z,99.90
2018-01-26T21:44:05.543Z,99.90
2018-01-26T21:46:33.103Z,99.90
2018-01-26T21:49:00.624Z,99.90
2018-01-26T21:51:28.187Z,99.90
2018-01-26T21:53:56.468Z,99.90
2018-01-26T21:56:24.023Z,99.90
2018-01-26T21:58:51.533Z,99.90
2018-01-26T22:01:19.099Z,99.90
2018-01-26T22:03:46.619Z,99.90
2018-01-26T22:06:19.747Z,99.90
2018-01-26T22:08:47.307Z,99.90
2018-01-26T22:11:14.821Z,99.90
2018-01-26T22:13:42.371Z,99.90
2018-01-26T22:16:10.657Z,99.90
2018-01-26T22:18:38.976Z,99.90
2018-01-26T22:21:06.523Z,99.90
2018-01-26T22:23:34.866Z,99.90
2018-01-26T22:26:02.393Z,99.90
2018-01-26T22:28:30.670Z,99.90
2018-01-26T22:30:58.228Z,99.90
2018-01-26T22:33:25.752Z,99.90
2018-01-26T22:35:53.318Z,99.90
2018-01-26T22:38:20.844Z,99.90
2018-01-26T22:40:49.519Z,99.90
2018-01-26T22:43:17.119Z,99.90
2018-01-26T22:45:44.676Z,99.90
2018-01-26T22:48:12.201Z,99.90
2018-01-26T22:50:39.757Z,99.90
2018-01-26T22:53:08.049Z,99.90
2018-01-26T22:55:36.403Z,99.90
2018-01-26T22:58:03.920Z,99.90
2018-01-26T23:00:31.481Z,99.90
2018-01-26T23:02:59.763Z,99.90
2018-01-26T23:05:27.278Z,99.90
2018-01-26T23:07:54.829Z,99.90
2018-01-26T23:10:22.343Z,99.90
2018-01-26T23:12:49.895Z,99.90
2018-01-26T23:15:17.416Z,99.90
2018-01-26T23:17:44.964Z,99.90
2018-01-26T23:20:12.493Z,99.90
2018-01-26T23:22:40.049Z,99.90
2018-01-26T23:25:08.342Z,99.90
2018-01-26T23:27:35.903Z,99.90
2018-01-26T23:30:03.459Z,99.90
2018-01-26T23:32:30.979Z,99.90
2018-01-26T23:34:58.527Z,99.90
2018-01-26T23:37:26.798Z,99.90
2018-01-26T23:39:54.351Z,99.90
2018-01-26T23:42:21.868Z,99.90
2018-01-26T23:44:50.184Z,99.90
2018-01-26T23:47:17.699Z,99.90
2018-01-26T23:49:45.258Z,99.90
2018-01-26T23:52:12.763Z,99.90
2018-01-26T23:54:41.093Z,99.90
2018-01-26T23:57:08.599Z,99.90
2018-01-26T23:59:36.112Z,99.90
